createdAt,value
2019-05-06T00:01:59.955Z,0.60
2019-05-06T00:04:26.302Z,0.60
2019-05-06T00:06:54.587Z,0.60
2019-05-06T00:09:20.870Z,0.60
2019-05-06T00:11:47.258Z,0.70
2019-05-06T00:14:14.153Z,0.70
2019-05-06T00:16:40.546Z,0.60
2019-05-06T00:19:06.936Z,0.60
2019-05-06T00:21:35.305Z,0.60
2019-05-06T00:24:03.751Z,0.50
2019-05-06T00:26:44.855Z,0.50
2019-05-06T00:29:13.988Z,0.50
2019-05-06T00:31:43.890Z,0.50
2019-05-06T00:34:09.721Z,0.60
2019-05-06T00:36:36.105Z,0.40
2019-05-06T00:39:09.371Z,0.40
2019-05-06T00:41:36.574Z,0.40
2019-05-06T00:44:04.025Z,0.40
2019-05-06T00:46:30.525Z,0.50
2019-05-06T00:48:56.855Z,0.40
2019-05-06T00:51:24.167Z,0.40
2019-05-06T00:53:54.378Z,0.30
2019-05-06T00:56:21.773Z,0.30
2019-05-06T00:58:48.113Z,0.30
2019-05-06T01:01:25.831Z,0.40
2019-05-06T01:03:44.232Z,0.30
2019-05-06T01:06:10.751Z,0.30
2019-05-06T01:08:37.143Z,0.30
2019-05-06T01:11:04.740Z,0.20
2019-05-06T01:13:38.814Z,0.20
2019-05-06T01:16:05.128Z,0.10
2019-05-06T01:18:31.507Z,0.10
2019-05-06T01:21:09.584Z,0.20
2019-05-06T01:23:37.720Z,0.20
2019-05-06T01:26:04.284Z,0.20
2019-05-06T01:28:30.761Z,0.00
2019-05-06T01:30:57.168Z,-0.10
2019-05-06T01:33:24.162Z,0.00
2019-05-06T01:35:50.637Z,0.00
2019-05-06T01:38:30.940Z,0.00
2019-05-06T01:41:03.863Z,0.00
2019-05-06T01:43:35.008Z,0.00
2019-05-06T01:46:01.400Z,0.10
2019-05-06T01:48:46.188Z,0.00
2019-05-06T01:51:14.262Z,0.00
2019-05-06T01:53:40.833Z,0.00
2019-05-06T01:56:07.197Z,0.00
2019-05-06T01:58:33.636Z,-0.10
2019-05-06T02:00:59.981Z,0.00
2019-05-06T02:03:26.342Z,0.00
2019-05-06T02:05:53.930Z,0.00
2019-05-06T02:08:20.463Z,0.00
2019-05-06T02:10:46.840Z,0.00
2019-05-06T02:13:14.223Z,-0.10
2019-05-06T02:15:40.657Z,0.00
2019-05-06T02:18:07.056Z,-0.20
2019-05-06T02:20:34.992Z,-0.10
2019-05-06T02:23:04.188Z,-0.10
2019-05-06T02:25:34.164Z,-0.10
2019-05-06T02:28:00.611Z,-0.10
2019-05-06T02:30:28.883Z,-0.10
2019-05-06T02:32:57.191Z,-0.20
2019-05-06T02:35:26.501Z,-0.20
2019-05-06T02:37:54.990Z,-0.30
2019-05-06T02:40:25.508Z,-0.30
2019-05-06T02:42:54.707Z,-0.20
2019-05-06T02:45:23.551Z,-0.20
2019-05-06T02:48:09.725Z,-0.20
2019-05-06T02:50:47.045Z,-0.30
2019-05-06T02:53:15.404Z,-0.30
2019-05-06T02:55:43.101Z,-0.30
2019-05-06T02:58:09.554Z,-0.40
2019-05-06T03:00:35.957Z,-0.40
2019-05-06T03:03:02.886Z,-0.40
2019-05-06T03:05:29.472Z,-0.30
2019-05-06T03:07:57.565Z,-0.40
2019-05-06T03:10:24.878Z,-0.40
2019-05-06T03:12:53.736Z,-0.40
2019-05-06T03:15:19.587Z,-0.40
2019-05-06T03:17:45.980Z,-0.50
2019-05-06T03:20:17.995Z,-0.60
2019-05-06T03:22:49.101Z,-0.60
2019-05-06T03:25:17.354Z,-0.60
2019-05-06T03:27:47.003Z,-0.50
2019-05-06T03:30:16.688Z,-0.50
2019-05-06T03:33:14.183Z,-0.50
2019-05-06T03:35:27.516Z,-0.50
2019-05-06T03:37:37.268Z,-0.40
2019-05-06T03:40:04.451Z,-0.30
2019-05-06T03:42:33.451Z,-0.30
2019-05-06T03:45:03.935Z,-0.30
2019-05-06T03:47:43.610Z,-0.30
2019-05-06T03:50:13.111Z,-0.20
2019-05-06T03:52:38.389Z,-0.30
2019-05-06T03:55:05.067Z,-0.30
2019-05-06T03:57:35.379Z,-0.30
2019-05-06T03:59:59.945Z,-0.30
2019-05-06T04:02:26.901Z,-0.30
2019-05-06T04:04:56.476Z,-0.20
2019-05-06T04:07:23.454Z,-0.20
2019-05-06T04:09:53.179Z,-0.20
2019-05-06T04:12:18.514Z,-0.20
2019-05-06T04:14:44.869Z,-0.20
2019-05-06T04:17:16.407Z,-0.10
2019-05-06T04:19:44.794Z,-0.10
2019-05-06T04:22:19.340Z,-0.10
2019-05-06T04:24:56.205Z,0.00
2019-05-06T04:27:44.352Z,0.00
2019-05-06T04:30:13.507Z,0.10
2019-05-06T04:32:39.689Z,0.10
2019-05-06T04:35:06.288Z,0.10
2019-05-06T04:37:33.822Z,0.20
2019-05-06T04:40:04.208Z,0.20
2019-05-06T04:42:28.833Z,0.30
2019-05-06T04:44:55.282Z,0.30
2019-05-06T04:47:24.178Z,0.40
2019-05-06T04:49:53.219Z,0.40
2019-05-06T04:52:22.811Z,0.50
2019-05-06T04:54:48.531Z,0.50
2019-05-06T04:57:14.893Z,0.70
2019-05-06T04:59:43.218Z,0.70
2019-05-06T05:02:09.405Z,0.90
2019-05-06T05:04:36.845Z,1.00
2019-05-06T05:07:03.635Z,1.10
2019-05-06T05:09:32.412Z,1.20
2019-05-06T05:12:13.383Z,1.30
2019-05-06T05:14:44.412Z,1.50
2019-05-06T05:17:27.993Z,1.60
2019-05-06T05:19:54.380Z,1.80
2019-05-06T05:22:21.923Z,2.00
2019-05-06T05:24:48.471Z,2.20
2019-05-06T05:27:14.815Z,2.30
2019-05-06T05:29:42.382Z,2.50
2019-05-06T05:32:08.868Z,2.60
2019-05-06T05:34:39.907Z,2.80
2019-05-06T05:37:03.481Z,3.00
2019-05-06T05:39:29.916Z,3.30
2019-05-06T05:41:58.215Z,3.50
2019-05-06T05:44:35.094Z,3.80
2019-05-06T05:47:03.355Z,4.10
2019-05-06T05:49:34.607Z,4.40
2019-05-06T05:52:03.327Z,4.70
2019-05-06T05:54:29.499Z,5.10
2019-05-06T05:56:55.972Z,5.40
2019-05-06T05:59:23.228Z,5.80
2019-05-06T06:01:52.719Z,6.10
2019-05-06T06:04:18.436Z,6.40
2019-05-06T06:06:44.777Z,6.60
2019-05-06T06:09:12.750Z,7.10
2019-05-06T06:11:53.395Z,7.70
2019-05-06T06:14:33.167Z,8.40
2019-05-06T06:17:18.710Z,9.00
2019-05-06T06:20:04.114Z,9.90
2019-05-06T06:22:33.060Z,10.50
2019-05-06T06:24:59.722Z,11.30
2019-05-06T06:27:26.074Z,12.10
2019-05-06T06:29:52.835Z,12.60
2019-05-06T06:32:22.991Z,13.30
2019-05-06T06:35:08.382Z,13.90
2019-05-06T06:37:42.668Z,14.10
2019-05-06T06:40:13.095Z,14.30
2019-05-06T06:42:39.829Z,14.70
2019-05-06T06:45:06.693Z,14.70
2019-05-06T06:47:33.100Z,15.40
2019-05-06T06:49:59.556Z,15.60
2019-05-06T06:52:25.967Z,15.80
2019-05-06T06:54:52.776Z,15.90
2019-05-06T06:57:34.397Z,16.40
2019-05-06T07:00:05.881Z,17.10
2019-05-06T07:02:34.676Z,17.50
2019-05-06T07:05:03.849Z,17.20
2019-05-06T07:07:41.463Z,17.40
2019-05-06T07:09:59.909Z,17.70
2019-05-06T07:12:26.312Z,17.80
2019-05-06T07:14:54.609Z,18.50
2019-05-06T07:17:22.837Z,18.80
2019-05-06T07:20:05.944Z,18.80
2019-05-06T07:22:35.839Z,19.00
2019-05-06T07:25:07.014Z,18.30
2019-05-06T07:27:33.438Z,18.30
2019-05-06T07:29:59.855Z,18.30
2019-05-06T07:32:26.221Z,18.30
2019-05-06T07:34:53.233Z,18.80
2019-05-06T07:37:21.979Z,19.30
2019-05-06T07:39:47.972Z,19.40
2019-05-06T07:42:18.871Z,19.40
2019-05-06T07:44:53.119Z,19.80
2019-05-06T07:47:23.774Z,19.40
2019-05-06T07:49:49.582Z,19.50
2019-05-06T07:52:17.330Z,20.50
2019-05-06T07:54:43.879Z,20.00
2019-05-06T07:57:12.513Z,20.90
2019-05-06T07:59:38.778Z,20.50
2019-05-06T08:02:05.229Z,20.00
2019-05-06T08:04:32.590Z,20.00
2019-05-06T08:06:58.925Z,20.10
2019-05-06T08:09:25.279Z,20.40
2019-05-06T08:11:53.061Z,20.50
2019-05-06T08:14:22.312Z,20.60
2019-05-06T08:16:53.258Z,21.10
2019-05-06T08:19:19.628Z,20.30
2019-05-06T08:21:47.968Z,19.60
2019-05-06T08:24:14.301Z,19.50
2019-05-06T08:26:42.717Z,19.30
2019-05-06T08:29:08.951Z,19.00
2019-05-06T08:31:35.349Z,19.20
2019-05-06T08:34:02.704Z,19.20
2019-05-06T08:36:32.869Z,18.80
2019-05-06T08:39:02.535Z,19.20
2019-05-06T08:41:30.316Z,19.80
2019-05-06T08:43:56.750Z,20.40
2019-05-06T08:46:23.664Z,20.70
2019-05-06T08:48:52.355Z,21.00
2019-05-06T08:51:22.315Z,21.60
2019-05-06T08:53:53.415Z,21.00
2019-05-06T08:56:22.026Z,20.50
2019-05-06T08:58:48.695Z,20.00
2019-05-06T09:01:24.183Z,20.10
2019-05-06T09:04:05.073Z,20.50
2019-05-06T09:06:27.563Z,20.80
2019-05-06T09:08:46.951Z,21.10
2019-05-06T09:11:13.328Z,20.90
2019-05-06T09:13:39.681Z,20.90
2019-05-06T09:16:06.058Z,21.00
2019-05-06T09:18:32.946Z,21.30
2019-05-06T09:20:59.562Z,21.80
2019-05-06T09:23:27.516Z,22.60
2019-05-06T09:25:54.107Z,23.10
2019-05-06T09:28:23.371Z,23.20
2019-05-06T09:30:52.535Z,22.70
2019-05-06T09:33:22.529Z,21.90
2019-05-06T09:35:49.026Z,21.50
2019-05-06T09:38:15.384Z,21.90
2019-05-06T09:40:43.281Z,22.30
2019-05-06T09:43:09.863Z,22.40
2019-05-06T09:45:36.257Z,22.60
2019-05-06T09:48:04.946Z,22.90
2019-05-06T09:50:37.408Z,21.90
2019-05-06T09:53:06.072Z,21.60
2019-05-06T09:55:34.324Z,21.10
2019-05-06T09:58:03.521Z,20.40
2019-05-06T10:00:32.947Z,20.00
2019-05-06T10:02:59.603Z,19.00
2019-05-06T10:05:26.019Z,18.80
2019-05-06T10:07:52.482Z,19.70
2019-05-06T10:10:18.845Z,21.20
2019-05-06T10:12:45.286Z,23.00
2019-05-06T10:15:12.699Z,22.40
2019-05-06T10:17:39.202Z,23.50
2019-05-06T10:20:05.919Z,23.20
2019-05-06T10:22:33.484Z,21.90
2019-05-06T10:25:00.024Z,21.80
2019-05-06T10:27:26.390Z,21.40
2019-05-06T10:29:54.660Z,20.10
2019-05-06T10:32:25.925Z,19.20
2019-05-06T10:34:52.706Z,19.50
2019-05-06T10:37:49.064Z,20.50
2019-05-06T10:40:19.273Z,20.30
2019-05-06T10:43:06.274Z,20.90
2019-05-06T10:45:32.891Z,20.50
2019-05-06T10:47:59.211Z,20.30
2019-05-06T10:50:27.500Z,19.60
2019-05-06T10:53:13.523Z,19.90
2019-05-06T10:55:42.755Z,21.30
2019-05-06T10:58:09.247Z,22.50
2019-05-06T11:00:35.746Z,22.40
2019-05-06T11:03:16.195Z,21.50
2019-05-06T11:05:43.329Z,21.60
2019-05-06T11:08:10.115Z,22.50
2019-05-06T11:10:41.153Z,23.00
2019-05-06T11:13:05.628Z,21.90
2019-05-06T11:15:32.999Z,21.00
2019-05-06T11:18:04.032Z,20.00
2019-05-06T11:20:27.775Z,18.90
2019-05-06T11:22:54.153Z,18.20
2019-05-06T11:25:22.887Z,17.60
2019-05-06T11:27:48.743Z,17.50
2019-05-06T11:30:17.527Z,17.20
2019-05-06T11:33:04.807Z,17.10
2019-05-06T11:35:52.563Z,16.90
2019-05-06T11:38:19.848Z,16.60
2019-05-06T11:40:46.293Z,16.70
2019-05-06T11:43:12.697Z,16.80
2019-05-06T11:45:39.067Z,16.90
2019-05-06T11:48:05.503Z,17.70
2019-05-06T11:50:33.437Z,19.20
2019-05-06T11:53:02.295Z,21.20
2019-05-06T11:55:32.737Z,22.40
2019-05-06T11:57:56.467Z,23.40
2019-05-06T12:00:24.964Z,22.90
2019-05-06T12:02:53.355Z,21.70
2019-05-06T12:05:19.569Z,21.10
2019-05-06T12:08:01.082Z,21.70
2019-05-06T12:10:14.513Z,22.40
2019-05-06T12:12:42.553Z,23.50
2019-05-06T12:15:09.699Z,22.80
2019-05-06T12:17:37.221Z,21.60
2019-05-06T12:20:05.154Z,20.60
2019-05-06T12:22:34.502Z,19.70
2019-05-06T12:25:04.471Z,18.90
2019-05-06T12:27:44.342Z,18.20
2019-05-06T12:30:12.651Z,17.70
2019-05-06T12:32:43.397Z,17.40
2019-05-06T12:35:12.352Z,17.30
2019-05-06T12:37:39.993Z,17.10
2019-05-06T12:40:06.464Z,16.90
2019-05-06T12:42:34.722Z,16.90
2019-05-06T12:45:03.672Z,16.80
2019-05-06T12:47:32.830Z,17.10
2019-05-06T12:50:02.791Z,17.60
2019-05-06T12:52:28.735Z,18.20
2019-05-06T12:55:13.703Z,19.10
2019-05-06T12:57:23.565Z,20.00
2019-05-06T12:59:50.109Z,21.10
2019-05-06T13:02:16.513Z,21.10
2019-05-06T13:04:55.264Z,21.40
2019-05-06T13:07:13.016Z,21.10
2019-05-06T13:09:42.343Z,20.70
2019-05-06T13:12:09.498Z,20.30
2019-05-06T13:14:35.858Z,20.00
2019-05-06T13:17:02.824Z,19.40
2019-05-06T13:19:29.303Z,18.80
2019-05-06T13:21:55.720Z,18.30
2019-05-06T13:24:23.079Z,17.90
2019-05-06T13:26:49.502Z,17.70
2019-05-06T13:29:26.343Z,17.30
2019-05-06T13:31:53.137Z,17.10
2019-05-06T13:34:19.954Z,16.80
2019-05-06T13:36:47.710Z,16.50
2019-05-06T13:39:15.244Z,16.30
2019-05-06T13:41:42.207Z,16.10
2019-05-06T13:44:12.934Z,16.00
2019-05-06T13:46:40.843Z,16.00
2019-05-06T13:49:09.295Z,15.90
2019-05-06T13:51:42.771Z,15.90
2019-05-06T13:54:08.650Z,16.10
2019-05-06T13:56:35.043Z,16.40
2019-05-06T13:59:01.541Z,16.80
2019-05-06T14:01:32.098Z,17.40
2019-05-06T14:03:58.611Z,18.10
2019-05-06T14:06:25.042Z,18.80
2019-05-06T14:08:52.993Z,19.60
2019-05-06T14:11:19.537Z,20.50
2019-05-06T14:13:46.013Z,20.80
2019-05-06T14:16:13.230Z,21.70
2019-05-06T14:18:39.924Z,21.70
2019-05-06T14:21:06.349Z,21.10
2019-05-06T14:23:32.927Z,20.10
2019-05-06T14:26:04.328Z,19.00
2019-05-06T14:28:32.732Z,18.40
2019-05-06T14:31:03.547Z,17.90
2019-05-06T14:33:32.135Z,17.50
2019-05-06T14:35:58.170Z,17.10
2019-05-06T14:38:24.846Z,16.70
2019-05-06T14:41:07.971Z,16.50
2019-05-06T14:43:34.408Z,16.10
2019-05-06T14:46:01.000Z,15.80
2019-05-06T14:48:27.451Z,15.70
2019-05-06T14:50:57.221Z,15.70
2019-05-06T14:53:23.911Z,15.50
2019-05-06T14:55:52.092Z,15.30
2019-05-06T14:58:18.439Z,15.20
2019-05-06T15:00:44.989Z,15.10
2019-05-06T15:03:12.982Z,14.90
2019-05-06T15:05:39.666Z,14.80
2019-05-06T15:08:06.018Z,14.70
2019-05-06T15:10:32.483Z,14.70
2019-05-06T15:12:58.867Z,14.60
2019-05-06T15:15:25.389Z,14.50
2019-05-06T15:17:53.235Z,14.40
2019-05-06T15:20:22.472Z,14.40
2019-05-06T15:22:48.842Z,14.40
2019-05-06T15:25:15.223Z,14.40
2019-05-06T15:27:42.618Z,14.40
2019-05-06T15:30:12.424Z,14.40
2019-05-06T15:32:39.183Z,14.30
2019-05-06T15:35:08.984Z,14.20
2019-05-06T15:37:37.308Z,14.10
2019-05-06T15:40:08.160Z,14.00
2019-05-06T15:42:35.640Z,14.00
2019-05-06T15:45:04.530Z,14.00
2019-05-06T15:47:32.287Z,14.00
2019-05-06T15:49:59.035Z,13.90
2019-05-06T15:52:25.553Z,14.00
2019-05-06T15:54:52.584Z,14.00
2019-05-06T15:57:19.125Z,14.00
2019-05-06T15:59:45.649Z,14.00
2019-05-06T16:02:12.051Z,14.00
2019-05-06T16:04:38.438Z,14.00
2019-05-06T16:07:04.820Z,14.00
2019-05-06T16:09:32.839Z,13.90
2019-05-06T16:11:59.498Z,13.80
2019-05-06T16:14:25.934Z,13.70
2019-05-06T16:16:52.930Z,13.70
2019-05-06T16:19:19.421Z,13.60
2019-05-06T16:21:46.888Z,13.60
2019-05-06T16:24:15.255Z,13.50
2019-05-06T16:26:42.496Z,13.50
2019-05-06T16:29:09.882Z,13.50
2019-05-06T16:31:36.269Z,13.40
2019-05-06T16:34:03.205Z,13.40
2019-05-06T16:36:32.187Z,13.40
2019-05-06T16:38:58.093Z,13.40
2019-05-06T16:41:24.842Z,13.40
2019-05-06T16:43:52.386Z,13.40
2019-05-06T16:46:19.050Z,13.40
2019-05-06T16:48:45.684Z,13.10
2019-05-06T16:51:12.797Z,13.10
2019-05-06T16:53:39.294Z,13.00
2019-05-06T16:56:07.621Z,13.10
2019-05-06T16:58:36.964Z,13.20
2019-05-06T17:01:04.932Z,13.20
2019-05-06T17:03:42.710Z,13.20
2019-05-06T17:06:27.909Z,13.20
2019-05-06T17:08:54.364Z,13.30
2019-05-06T17:11:28.151Z,13.20
2019-05-06T17:13:49.277Z,13.10
2019-05-06T17:16:15.885Z,13.00
2019-05-06T17:18:42.384Z,13.00
2019-05-06T17:21:08.762Z,13.10
2019-05-06T17:23:35.119Z,13.00
2019-05-06T17:26:01.974Z,13.00
2019-05-06T17:28:43.746Z,13.00
2019-05-06T17:31:13.255Z,12.90
2019-05-06T17:33:42.877Z,12.90
2019-05-06T17:36:12.702Z,12.80
2019-05-06T17:38:48.164Z,12.70
2019-05-06T17:41:14.567Z,12.60
2019-05-06T17:43:43.833Z,12.50
2019-05-06T17:46:12.710Z,12.30
2019-05-06T17:48:50.234Z,12.20
2019-05-06T17:51:21.027Z,12.20
2019-05-06T17:53:49.304Z,12.00
2019-05-06T17:56:15.867Z,12.00
2019-05-06T17:58:42.477Z,11.80
2019-05-06T18:01:12.561Z,11.80
2019-05-06T18:03:38.761Z,11.70
2019-05-06T18:06:09.207Z,11.70
2019-05-06T18:08:33.522Z,11.50
2019-05-06T18:11:00.097Z,11.40
2019-05-06T18:13:26.491Z,11.40
2019-05-06T18:15:53.142Z,11.20
2019-05-06T18:18:21.914Z,11.10
2019-05-06T18:20:48.166Z,11.00
2019-05-06T18:23:14.584Z,10.90
2019-05-06T18:25:43.005Z,10.70
2019-05-06T18:28:09.335Z,10.60
2019-05-06T18:30:37.107Z,10.50
2019-05-06T18:33:03.731Z,10.30
2019-05-06T18:35:30.226Z,10.20
2019-05-06T18:37:56.629Z,10.10
2019-05-06T18:40:23.295Z,10.10
2019-05-06T18:42:49.803Z,10.00
2019-05-06T18:45:16.193Z,9.80
2019-05-06T18:47:42.644Z,9.60
2019-05-06T18:50:09.191Z,9.40
2019-05-06T18:52:35.592Z,9.10
2019-05-06T18:55:02.343Z,8.90
2019-05-06T18:57:28.781Z,8.80
2019-05-06T18:59:55.308Z,8.60
2019-05-06T19:02:22.944Z,8.50
2019-05-06T19:04:52.335Z,8.40
2019-05-06T19:07:19.009Z,8.30
2019-05-06T19:10:05.245Z,8.10
2019-05-06T19:12:39.905Z,8.10
2019-05-06T19:15:00.235Z,7.90
2019-05-06T19:17:26.692Z,7.70
2019-05-06T19:19:53.081Z,7.60
2019-05-06T19:22:19.557Z,7.50
2019-05-06T19:24:45.945Z,7.40
2019-05-06T19:27:12.770Z,7.30
2019-05-06T19:29:39.582Z,7.30
2019-05-06T19:32:05.980Z,7.10
2019-05-06T19:34:35.145Z,7.10
2019-05-06T19:37:02.461Z,7.00
2019-05-06T19:39:28.932Z,7.00
2019-05-06T19:41:55.488Z,6.90
2019-05-06T19:44:22.164Z,6.90
2019-05-06T19:46:48.726Z,6.90
2019-05-06T19:49:16.295Z,6.90
2019-05-06T19:51:43.047Z,6.80
2019-05-06T19:54:09.347Z,6.80
2019-05-06T19:56:35.756Z,6.70
2019-05-06T19:59:02.216Z,6.70
2019-05-06T20:01:28.786Z,6.70
2019-05-06T20:03:55.617Z,6.70
2019-05-06T20:06:40.904Z,6.80
2019-05-06T20:09:27.646Z,6.90
2019-05-06T20:11:56.041Z,6.90
2019-05-06T20:14:22.518Z,6.90
2019-05-06T20:16:49.099Z,6.80
2019-05-06T20:19:28.164Z,6.70
2019-05-06T20:21:44.286Z,6.70
2019-05-06T20:24:12.704Z,6.70
2019-05-06T20:26:39.314Z,6.90
2019-05-06T20:29:05.939Z,7.00
2019-05-06T20:31:32.744Z,7.20
2019-05-06T20:33:59.337Z,7.40
2019-05-06T20:36:25.783Z,7.60
2019-05-06T20:38:52.242Z,7.70
2019-05-06T20:41:18.625Z,7.70
2019-05-06T20:43:45.055Z,7.80
2019-05-06T20:46:12.452Z,7.50
2019-05-06T20:48:39.020Z,7.40
2019-05-06T20:51:05.411Z,7.30
2019-05-06T20:53:32.541Z,7.20
2019-05-06T20:55:59.079Z,7.10
2019-05-06T20:58:25.539Z,7.10
2019-05-06T21:00:52.246Z,7.10
2019-05-06T21:03:18.811Z,7.10
2019-05-06T21:05:45.204Z,7.10
2019-05-06T21:08:13.031Z,7.00
2019-05-06T21:10:39.632Z,7.00
2019-05-06T21:13:06.213Z,7.00
2019-05-06T21:15:32.692Z,7.00
2019-05-06T21:18:02.167Z,6.90
2019-05-06T21:20:27.639Z,6.90
2019-05-06T21:22:54.027Z,6.90
2019-05-06T21:25:22.487Z,6.90
2019-05-06T21:27:48.646Z,6.80
2019-05-06T21:30:15.576Z,6.70
2019-05-06T21:32:42.680Z,6.70
2019-05-06T21:35:09.348Z,6.60
2019-05-06T21:37:35.748Z,6.50
2019-05-06T21:40:04.614Z,6.50
2019-05-06T21:42:32.551Z,6.40
2019-05-06T21:44:59.061Z,6.30
2019-05-06T21:47:25.395Z,6.20
2019-05-06T21:49:52.875Z,6.10
2019-05-06T21:52:32.931Z,6.10
2019-05-06T21:54:47.509Z,6.00
2019-05-06T21:57:13.874Z,6.00
2019-05-06T21:59:42.273Z,5.90
2019-05-06T22:02:11.979Z,5.80
2019-05-06T22:04:38.579Z,5.70
2019-05-06T22:07:05.028Z,5.70
2019-05-06T22:09:32.285Z,5.70
2019-05-06T22:11:58.872Z,5.70
2019-05-06T22:14:25.408Z,5.70
2019-05-06T22:16:51.877Z,5.70
2019-05-06T22:19:18.289Z,5.80
2019-05-06T22:21:47.605Z,5.80
2019-05-06T22:24:15.954Z,5.90
2019-05-06T22:26:43.116Z,6.00
2019-05-06T22:29:09.659Z,6.10
2019-05-06T22:31:36.105Z,6.20
2019-05-06T22:34:02.595Z,6.30
2019-05-06T22:36:29.008Z,6.50
2019-05-06T22:38:55.423Z,6.60
2019-05-06T22:41:23.135Z,6.60
2019-05-06T22:43:50.155Z,6.60
2019-05-06T22:46:18.807Z,6.70
2019-05-06T22:48:45.212Z,6.60
2019-05-06T22:51:12.384Z,6.60
2019-05-06T22:53:38.841Z,6.60
2019-05-06T22:56:08.561Z,6.60
2019-05-06T22:58:34.947Z,6.60
2019-05-06T23:01:04.510Z,6.60
2019-05-06T23:03:34.474Z,6.60
2019-05-06T23:06:02.434Z,6.60
2019-05-06T23:08:28.371Z,6.50
2019-05-06T23:10:54.767Z,6.50
2019-05-06T23:13:23.086Z,6.50
2019-05-06T23:15:49.346Z,6.50
2019-05-06T23:18:15.721Z,6.50
2019-05-06T23:20:43.110Z,6.40
2019-05-06T23:23:09.483Z,6.50
2019-05-06T23:25:35.833Z,6.40
2019-05-06T23:28:02.837Z,6.40
2019-05-06T23:30:30.193Z,6.40
2019-05-06T23:32:56.637Z,6.20
2019-05-06T23:35:23.070Z,6.30
2019-05-06T23:38:26.930Z,6.30
2019-05-06T23:41:32.551Z,6.20
2019-05-06T23:44:45.561Z,6.00
2019-05-06T23:47:42.427Z,5.70
2019-05-06T23:50:46.355Z,5.50
2019-05-06T23:53:52.134Z,5.40
2019-05-06T23:56:42.918Z,5.30
2019-05-06T23:59:12.360Z,5.10
